Flight Track Log - Related Links

Times and Time Zones

All times are in EDT time to prevent confusion due to time zone crossing. See the EJA941 flight status page for this flight to view local times or setup timezone preferences in your user account.

Time Position Orientation Groundspeed Altitude Reporting Facility
EDT Latitude Longitude Course Direction KTS MPH feet Rate Location/Type
Fri 09:30:03 AM 38.1833 -78.4333 270° West 182 209 3,200  Level Potomac TRACON
Fri 09:30:53 AM 38.2078 -78.4667 313° West 217 250 5,800 3,000 Climbing Washington Center
Fri 09:31:51 AM 38.2122 -78.5356 275° West 207 238 8,600 2,288 Climbing Washington Center
Fri 09:32:51 AM 38.2164 -78.6203 274° West 227 261 10,300 1,587 Climbing Washington Center
Fri 09:33:52 AM 38.2239 -78.7344 275° West 272 313 11,800 1,672 Climbing Washington Center
Fri 09:34:53 AM 38.2294 -78.8431 274° West 303 349 13,700 1,765 Climbing Washington Center
Fri 09:35:00 AM 38.2500 -79.3843 270° West  Level FlightAware Approximate
Fri 09:35:51 AM 38.2344 -78.9569 273° West 322 371 15,300  Level Washington Center
Fri 09:36:52 AM 38.2419 -79.0631 275° West 334 384 16,800 1,377 Climbing Washington Center
Fri 09:37:53 AM 38.2467 -79.1822 273° West 334 384 18,100 1,289 Climbing Washington Center
Fri 09:38:53 AM 38.2536 -79.3042 274° West 341 392 19,400 1,475 Climbing Washington Center
Fri 09:39:51 AM 38.2617 -79.4447 274° West 359 413 21,000 1,462 Climbing Washington Center
Fri 09:40:52 AM 38.2678 -79.5747 273° West 365 420 22,300 1,388 Climbing Washington Center
Fri 09:41:52 AM 38.2736 -79.7072 273° West 370 426 23,800 1,289 Climbing Washington Center
Fri 09:42:53 AM 38.2794 -79.8397 273° West 375 432 24,900 1,140 Climbing Washington Center
Fri 09:43:53 AM 38.2856 -79.9644 274° West 386 444 26,100 1,207 Climbing Washington Center
Fri 09:45:42 AM 38.2942 -80.2233 273° West 405 466 28,300 1,193 Climbing Indianapolis Center
Fri 09:46:44 AM 38.3003 -80.3669 273° West 408 470 29,500 1,210 Climbing Indianapolis Center
Fri 09:47:46 AM 38.3053 -80.5150 273° West 420 483 30,800 1,161 Climbing Indianapolis Center
Fri 09:48:48 AM 38.3117 -80.6631 273° West 420 483 31,900 1,258 Climbing Indianapolis Center
Fri 09:49:50 AM 38.3194 -80.8428 273° West 423 487 33,400 1,403 Climbing Indianapolis Center
Fri 09:50:52 AM 38.3247 -80.9942 273° West 426 490 34,800 1,355 Climbing Indianapolis Center
Fri 09:51:54 AM 38.3300 -81.1433 273° West 421 484 36,200 1,306 Climbing Indianapolis Center
Fri 09:52:56 AM 38.3344 -81.2950 272° West 424 488 37,500 1,645 Climbing Indianapolis Center
Fri 09:53:58 AM 38.3394 -81.4422 273° West 417 480 39,600 1,210 Climbing Indianapolis Center
Fri 09:55:00 AM 38.3442 -81.5878 272° West 410 472 40,000 194 Climbing Indianapolis Center
Fri 09:56:02 AM 38.3486 -81.7428 272° West 430 495 40,000  Level Indianapolis Center
Fri 09:57:04 AM 38.3425 -81.9361 268° West 452 520 40,000  Level Indianapolis Center
Fri 09:58:06 AM 38.3356 -82.0992 267° West 460 529 40,000  Level Indianapolis Center
Fri 09:59:08 AM 38.3275 -82.2656 267° West 470 541 40,000  Level Indianapolis Center
Fri 10:00:10 AM 38.3192 -82.4311 266° West 468 539 40,000  Level Indianapolis Center
Fri 10:01:12 AM 38.3094 -82.6014 266° West 466 536 40,000 435 Level Indianapolis Center
Fri 10:02:14 AM 38.3000 -82.7653 266° West 465 535 40,900 816 Climbing Indianapolis Center
Fri 10:03:17 AM 38.2906 -82.9219 266° West 451 519 41,700 720 Climbing Indianapolis Center
Fri 10:04:19 AM 38.2792 -83.1069 266° West 450 518 42,400 532 Climbing Indianapolis Center
Fri 10:05:21 AM 38.2694 -83.2650 266° West 449 517 42,800 290 Climbing Indianapolis Center
Fri 10:06:23 AM 38.2594 -83.4217 265° West 447 514 43,000 97 Climbing Indianapolis Center
Fri 10:07:25 AM 38.2489 -83.5811 265° West 451 519 43,000  Level Indianapolis Center
Fri 10:08:27 AM 38.2372 -83.7661 265° West 451 519 43,000  Level Indianapolis Center
Fri 10:09:29 AM 38.2256 -83.9281 265° West 456 525 43,000  Level Indianapolis Center
Fri 10:10:31 AM 38.2150 -84.0886 265° West 457 526 43,000  Level Indianapolis Center
Fri 10:11:33 AM 38.2028 -84.2525 265° West 465 535 43,000  Level Indianapolis Center
Fri 10:12:35 AM 38.1914 -84.4133 265° West 461 531 43,000  Level Indianapolis Center
Fri 10:13:37 AM 38.1794 -84.5733 265° West 459 528 43,000  Level Indianapolis Center
Fri 10:14:39 AM 38.1661 -84.7619 265° West 460 529 43,000  Level Indianapolis Center
Fri 10:15:41 AM 38.1542 -84.9225 265° West 459 528 43,000  Level Indianapolis Center
Fri 10:16:43 AM 38.1417 -85.0847 264° West 462 532 43,000  Level Indianapolis Center
Fri 10:17:45 AM 38.1281 -85.2506 264° West 461 531 43,000  Level Indianapolis Center
Fri 10:18:47 AM 38.1164 -85.4119 265° West 459 528 43,000  Level Indianapolis Center
Fri 10:19:49 AM 38.1044 -85.5747 265° West 462 532 43,000  Level Indianapolis Center
Fri 10:20:51 AM 38.0906 -85.7372 264° West 462 532 43,000  Level Indianapolis Center
Fri 10:21:53 AM 38.0783 -85.9319 266° West 462 532 43,000  Level Indianapolis Center
Fri 10:22:55 AM 38.0658 -86.0947 264° West 461 531 43,000  Level Indianapolis Center
Fri 10:23:57 AM 38.0539 -86.2561 265° West 458 527 43,000  Level Indianapolis Center
Fri 10:24:59 AM 38.0414 -86.4203 265° West 463 533 43,000  Level Indianapolis Center
Fri 10:26:01 AM 38.0278 -86.5836 264° West 463 533 43,000  Level Indianapolis Center
Fri 10:27:03 AM 38.0139 -86.7486 264° West 464 534 43,000  Level Indianapolis Center
Fri 10:28:05 AM 38.0011 -86.9122 264° West 463 533 43,000  Level Indianapolis Center
Fri 10:29:07 AM 37.9872 -87.0786 264° West 466 536 43,000  Level Indianapolis Center
Fri 10:30:10 AM 37.9739 -87.2444 264° West 467 537 43,000  Level Indianapolis Center
Fri 10:31:12 AM 37.9600 -87.4100 264° West 468 539 43,000  Level Indianapolis Center
Fri 10:32:14 AM 37.9422 -87.6081 264° West 467 537 43,000  Level Indianapolis Center
Fri 10:33:16 AM 37.9269 -87.7731 263° West 468 539 43,000  Level Indianapolis Center
Fri 10:34:18 AM 37.9117 -87.9381 263° West 471 542 43,000  Level Indianapolis Center
Fri 10:35:20 AM 37.8958 -88.1042 263° West 474 545 43,000  Level Indianapolis Center
Fri 10:36:22 AM 37.8792 -88.2694 263° West 472 543 43,000  Level Indianapolis Center
Fri 10:37:24 AM 37.8636 -88.4347 263° West 472 543 43,000  Level Indianapolis Center
Fri 10:37:58 AM 37.8547 -88.5322 263° West 470 541 43,000  Level Kansas City Center
Fri 10:39:02 AM 37.8381 -88.6986 263° West 471 542 43,000  Level Kansas City Center
Fri 10:40:02 AM 37.8208 -88.8628 262° West 471 542 43,000  Level Kansas City Center
Fri 10:41:04 AM 37.8000 -89.0592 262° West 474 545 43,000  Level Kansas City Center
Fri 10:42:08 AM 37.7831 -89.2231 263° West 473 544 43,000  Level Kansas City Center
Fri 10:43:09 AM 37.7667 -89.3861 263° West 472 543 43,000  Level Kansas City Center
Fri 10:44:10 AM 37.7503 -89.5489 263° West 470 541 43,000  Level Kansas City Center
Fri 10:45:13 AM 37.7328 -89.7114 262° West 469 540 43,000  Level Kansas City Center
Fri 10:46:14 AM 37.7139 -89.8750 262° West 471 542 43,000  Level Kansas City Center
Fri 10:47:18 AM 37.6933 -90.0686 262° West 467 537 43,000  Level Kansas City Center
Fri 10:48:19 AM 37.6750 -90.2275 262° West 462 532 43,000  Level Kansas City Center
Fri 10:49:20 AM 37.6608 -90.3872 264° West 461 531 43,000  Level Kansas City Center
Fri 10:50:24 AM 37.6450 -90.5561 263° West 460 529 43,000  Level Kansas City Center
Fri 10:51:25 AM 37.6300 -90.7161 263° West 459 528 43,000  Level Kansas City Center
Fri 10:52:28 AM 37.6150 -90.8761 263° West 459 528 43,000  Level Kansas City Center
Fri 10:53:30 AM 37.5994 -91.0361 263° West 459 528 43,000  Level Kansas City Center
Fri 10:54:31 AM 37.5842 -91.1967 263° West 459 528 43,000  Level Kansas City Center
Fri 10:55:34 AM 37.5642 -91.3897 263° West 461 531 43,000  Level Kansas City Center
Fri 10:56:35 AM 37.5483 -91.5517 263° West 462 532 43,000  Level Kansas City Center
Fri 10:57:38 AM 37.5308 -91.7131 262° West 463 533 43,000  Level Kansas City Center
Fri 10:58:39 AM 37.5133 -91.8750 262° West 464 534 43,000  Level Kansas City Center
Fri 10:59:41 AM 37.4972 -92.0361 263° West 462 532 43,000  Level Kansas City Center
Fri 11:00:44 AM 37.4803 -92.1986 263° West 463 533 43,000  Level Kansas City Center
Fri 11:01:45 AM 37.4639 -92.3625 263° West 466 536 43,000  Level Kansas City Center
Fri 11:02:48 AM 37.4467 -92.5250 262° West 464 534 43,000  Level Kansas City Center
Fri 11:03:49 AM 37.4250 -92.7222 262° West 471 542 43,000  Level Kansas City Center
Fri 11:04:53 AM 37.4053 -92.8856 261° West 471 542 43,000  Level Kansas City Center
Fri 11:05:54 AM 37.3864 -93.0514 262° West 473 544 43,000  Level Kansas City Center
Fri 11:06:55 AM 37.3672 -93.2186 262° West 478 550 43,000  Level Kansas City Center
Fri 11:07:59 AM 37.3611 -93.3856 267° West 476 548 43,000  Level Kansas City Center
Fri 11:08:59 AM 37.3781 -93.5489 277° West 469 540 43,000  Level Kansas City Center
Fri 11:10:04 AM 37.3958 -93.7136 278° West 471 542 43,000  Level Kansas City Center
Fri 11:11:04 AM 37.4194 -93.9125 279° West 476 548 43,000  Level Kansas City Center
Fri 11:12:05 AM 37.4367 -94.0778 278° West 476 548 43,000  Level Kansas City Center
Fri 11:13:09 AM 37.4525 -94.2306 277° West 473 544 43,000  Level Kansas City Center
Fri 11:14:10 AM 37.4694 -94.3950 277° West 474 545 43,000  Level Kansas City Center
Fri 11:15:14 AM 37.4844 -94.5561 277° West 469 540 43,000  Level Kansas City Center
Fri 11:16:14 AM 37.5042 -94.7531 277° West 471 542 43,000  Level Kansas City Center
Fri 11:17:15 AM 37.5206 -94.9181 277° West 474 545 43,000  Level Kansas City Center
Fri 11:18:19 AM 37.5353 -95.0819 277° West 474 545 43,000  Level Kansas City Center
Fri 11:19:19 AM 37.5519 -95.2464 277° West 474 545 43,000  Level Kansas City Center
Fri 11:20:22 AM 37.5672 -95.4136 277° West 478 550 43,000  Level Kansas City Center
Fri 11:21:24 AM 37.5828 -95.5839 277° West 485 558 43,000  Level Kansas City Center
Fri 11:22:28 AM 37.6000 -95.7839 276° West 481 554 43,000  Level Kansas City Center
Fri 11:23:28 AM 37.6161 -95.9500 277° West 479 551 43,000  Level Kansas City Center
Fri 11:24:32 AM 37.6294 -96.1175 276° West 479 551 43,000  Level Kansas City Center
Fri 11:25:32 AM 37.6436 -96.2836 276° West 478 550 43,000  Level Kansas City Center
Fri 11:26:36 AM 37.6567 -96.4531 276° West 476 548 43,000  Level Kansas City Center
Fri 11:27:37 AM 37.6714 -96.6197 276° West 479 551 43,000  Level Kansas City Center
Fri 11:28:40 AM 37.6842 -96.7858 276° West 477 549 43,000  Level Kansas City Center
Fri 11:29:41 AM 37.7003 -96.9867 276° West 478 550 43,000  Level Kansas City Center
Fri 11:30:42 AM 37.7133 -97.1550 276° West 481 554 43,000  Level Kansas City Center
Fri 11:31:46 AM 37.7256 -97.3217 275° West 478 550 43,000  Level Kansas City Center
Fri 11:32:47 AM 37.7403 -97.5078 276° West 479 551 43,000  Level Kansas City Center
Fri 11:33:48 AM 37.7508 -97.6769 275° West 481 554 43,000  Level Kansas City Center
Fri 11:34:52 AM 37.7625 -97.8472 275° West 486 559 43,000  Level Kansas City Center
Fri 11:35:52 AM 37.7742 -98.0186 275° West 495 570 43,000  Level Kansas City Center
Fri 11:36:57 AM 37.7858 -98.1811 275° West 485 558 43,000  Level Kansas City Center
Fri 11:37:57 AM 37.7972 -98.3531 275° West 487 560 43,000  Level Kansas City Center
Fri 11:39:00 AM 37.8086 -98.5589 274° West 489 563 43,000  Level Kansas City Center
Fri 11:40:01 AM 37.8181 -98.7300 274° West 488 562 43,000  Level Kansas City Center
Fri 11:41:04 AM 37.8283 -98.9000 274° West 485 558 43,000  Level Kansas City Center
Fri 11:42:05 AM 37.8386 -99.0714 274° West 487 560 43,000  Level Kansas City Center
Fri 11:43:06 AM 37.8481 -99.2444 274° West 492 566 43,000  Level Kansas City Center
Fri 11:44:10 AM 37.8583 -99.4147 274° West 489 563 43,000  Level Kansas City Center
Fri 11:45:11 AM 37.8689 -99.6017 274° West 490 564 43,000  Level Kansas City Center
Fri 11:46:12 AM 37.8783 -99.7933 274° West 490 564 43,000  Level Kansas City Center
Fri 11:47:16 AM 37.8861 -99.9575 273° West 490 564 43,000  Level Kansas City Center
Fri 11:48:16 AM 37.8958 -100.1489 274° West 489 563 43,000  Level Kansas City Center
Fri 11:49:21 AM 37.9028 -100.3131 273° West 490 564 43,000  Level Kansas City Center
Fri 11:50:21 AM 37.9111 -100.5036 273° West 488 562 43,000  Level Kansas City Center
Fri 11:51:25 AM 37.9194 -100.6661 274° West 487 560 43,000  Level Kansas City Center
Fri 11:52:25 AM 37.9097 -100.8542 266° West 486 559 43,000  Level Kansas City Center
Fri 11:53:29 AM 37.8942 -101.0119 263° West 482 555 43,000  Level Kansas City Center
Fri 11:54:30 AM 37.8761 -101.1953 263° West 477 549 43,000  Level Kansas City Center
Fri 11:55:31 AM 37.8586 -101.3783 263° West 473 544 43,000  Level Kansas City Center
Fri 11:56:35 AM 37.8436 -101.5328 263° West 469 540 43,000  Level Kansas City Center
Fri 11:57:36 AM 37.8281 -101.6878 263° West 466 536 43,000  Level Kansas City Center
Fri 11:58:39 AM 37.8100 -101.8683 263° West 465 535 43,000  Level Kansas City Center
Fri 11:59:40 AM 37.7961 -102.0217 264° West 462 532 43,000  Level Kansas City Center
Fri 12:00:23 PM 37.8364 -102.1422 293° West 464 534 43,000  Level Denver Center
Fri 12:01:25 PM 37.9003 -102.3078 296° West 469 540 43,000  Level Denver Center
Fri 12:02:27 PM 37.9564 -102.4486 297° West 468 539 43,000  Level Denver Center
Fri 12:03:29 PM 38.0125 -102.5961 296° West 465 535 43,000  Level Denver Center
Fri 12:04:31 PM 38.0753 -102.7542 297° West 466 536 43,000  Level Denver Center
Fri 12:05:33 PM 38.1064 -102.9028 285° West 458 527 43,000  Level Denver Center
Fri 12:06:47 PM 38.0906 -103.0794 264° West 454 522 43,000  Level Denver Center
Fri 12:07:50 PM 38.0453 -103.2547 252° West 453 521 43,000  Level Denver Center
Fri 12:08:52 PM 38.0036 -103.4244 253° West 452 520 43,000  Level Denver Center
Fri 12:10:06 PM 37.9683 -103.5700 253° West 453 521 43,000  Level Denver Center
Fri 12:11:08 PM 37.9211 -103.7631 253° West 452 520 43,000  Level Denver Center
Fri 12:12:10 PM 37.8786 -103.9314 252° West 453 521 43,000  Level Denver Center
Fri 12:13:12 PM 37.8431 -104.0761 253° West 453 521 43,000  Level Denver Center
Fri 12:14:15 PM 37.8003 -104.2439 252° West 454 522 43,000  Level Denver Center
Fri 12:15:17 PM 37.7639 -104.3878 252° West 454 522 43,000  Level Denver Center
Fri 12:16:19 PM 37.7206 -104.5561 252° West 454 522 43,000  Level Denver Center
Fri 12:17:21 PM 37.6833 -104.6997 252° West 453 521 43,000  Level Denver Center
Fri 12:18:23 PM 37.6392 -104.8689 252° West 454 522 43,000  Level Denver Center
Fri 12:19:25 PM 37.6019 -105.0136 252° West 456 525 43,000  Level Denver Center
Fri 12:20:27 PM 37.5578 -105.1836 252° West 457 526 43,000  Level Denver Center
Fri 12:21:29 PM 37.5183 -105.3317 251° West 460 529 43,000  Level Denver Center
Fri 12:22:31 PM 37.4733 -105.5047 252° West 464 534 43,000  Level Denver Center
Fri 12:23:33 PM 37.4333 -105.6528 251° West 466 536 43,000  Level Denver Center
Fri 12:24:35 PM 37.3872 -105.8258 252° West 468 539 43,000  Level Denver Center
Fri 12:25:37 PM 37.3456 -105.9747 251° West 472 543 43,000  Level Denver Center
Fri 12:26:39 PM 37.3056 -106.1233 251° West 469 540 43,000  Level Denver Center
Fri 12:27:41 PM 37.2583 -106.2975 251° West 471 542 43,000  Level Denver Center
Fri 12:28:43 PM 37.2183 -106.4461 251° West 471 542 43,000  Level Denver Center
Fri 12:29:57 PM 37.1708 -106.6175 251° West 467 537 43,000  Level Denver Center
Fri 12:31:00 PM 37.1153 -106.8125 250° West 465 535 43,000  Level Denver Center
Fri 12:32:02 PM 37.0747 -106.9594 251° West 466 536 43,000  Level Denver Center
Fri 12:33:16 PM 37.0269 -107.1297 251° West 465 535 43,000  Level Denver Center
Fri 12:34:19 PM 36.9783 -107.3008 250° West 466 536 43,000  Level Denver Center
Fri 12:35:20 PM 36.9367 -107.4467 250° West 466 536 43,000  Level Denver Center
Fri 12:37:25 PM 36.8392 -107.7872 250° West 467 537 43,000  Level Denver Center
Fri 12:38:27 PM 36.7983 -107.9303 250° West 460 529 43,000  Level Denver Center
Fri 12:39:29 PM 36.7494 -108.0986 250° West 463 533 43,000  Level Denver Center
Fri 12:40:31 PM 36.7214 -108.2486 257° West 467 537 43,000  Level Denver Center
Fri 12:41:33 PM 36.6981 -108.3739 257° West 467 537 43,000  Level Denver Center
Fri 12:42:35 PM 36.6617 -108.5744 257° West 467 537 43,000  Level Denver Center
Fri 12:43:37 PM 36.6289 -108.7486 257° West 466 536 43,000  Level Denver Center
Fri 12:44:39 PM 36.6006 -108.8992 257° West 468 539 43,000  Level Denver Center
Fri 12:45:41 PM 36.5658 -109.0728 256° West 468 539 43,000  Level Denver Center
Fri 12:46:43 PM 36.5428 -109.1953 257° West 463 533 43,000  Level Denver Center
Fri 12:47:45 PM 36.5036 -109.3947 256° West 467 537 43,000  Level Denver Center
Fri 12:48:47 PM 36.4742 -109.5425 256° West 465 535 43,000  Level Denver Center
Fri 12:49:49 PM 36.4406 -109.7156 256° West 463 533 43,000  Level Denver Center
Fri 12:50:52 PM 36.4103 -109.8636 256° West 464 534 43,000  Level Denver Center
Fri 12:51:54 PM 36.3756 -110.0364 256° West 464 534 43,000  Level Denver Center
Fri 12:52:56 PM 36.3461 -110.1825 256° West 465 535 43,000  Level Denver Center
Fri 12:54:09 PM 36.3147 -110.3383 256° West 466 536 43,000  Level Denver Center
Fri 12:55:25 PM 36.2678 -110.5561 255° West 468 539 43,000  Level Denver Center
Fri 12:56:26 PM 36.2375 -110.7122 257° West 467 537 43,000  Level Denver Center
Fri 12:57:29 PM 36.1975 -110.8986 255° West 467 537 43,000  Level Denver Center
Fri 12:58:31 PM 36.1661 -111.0531 256° West 465 535 43,000  Level Denver Center
Fri 12:59:33 PM 36.1339 -111.2083 256° West 465 535 43,000  Level Denver Center
Fri 01:00:35 PM 36.1006 -111.3628 255° West 466 536 43,000  Level Denver Center
Fri 01:01:37 PM 36.0692 -111.5183 256° West 466 536 43,000  Level Denver Center
Fri 01:02:17 PM 36.0414 -111.6439 255° West 466 536 43,000  Level Los Angeles Center
Fri 01:03:19 PM 36.0081 -111.7983 255° West 466 536 43,000  Level Los Angeles Center
Fri 01:04:21 PM 35.9692 -111.9594 253° West 466 536 43,000  Level Los Angeles Center
Fri 01:05:23 PM 35.9331 -112.1114 254° West 465 535 43,000  Level Los Angeles Center
Fri 01:06:25 PM 35.8969 -112.2622 254° West 463 533 43,000  Level Los Angeles Center
Fri 01:07:27 PM 35.8611 -112.4142 254° West 465 535 43,000  Level Los Angeles Center
Fri 01:08:30 PM 35.8164 -112.5944 253° West 464 534 43,000  Level Los Angeles Center
Fri 01:09:32 PM 35.7803 -112.7472 254° West 468 539 43,000  Level Los Angeles Center
Fri 01:10:34 PM 35.7422 -112.8992 253° West 470 541 43,000  Level Los Angeles Center
Fri 01:11:36 PM 35.7056 -113.0508 253° West 471 542 43,000  Level Los Angeles Center
Fri 01:12:38 PM 35.6725 -113.1769 252° West 469 540 43,000  Level Los Angeles Center
Fri 01:13:40 PM 35.6217 -113.3836 253° West 473 544 43,000  Level Los Angeles Center
Fri 01:14:42 PM 35.5828 -113.5364 253° West 474 545 43,000  Level Los Angeles Center
Fri 01:15:56 PM 35.5450 -113.6881 253° West 472 543 43,000  Level Los Angeles Center
Fri 01:16:59 PM 35.4981 -113.8692 252° West 469 540 43,000  Level Los Angeles Center
Fri 01:18:01 PM 35.4508 -114.0517 252° West 471 542 43,000  Level Los Angeles Center
Fri 01:19:03 PM 35.4122 -114.1900 251° West 468 539 43,000  Level Los Angeles Center
Fri 01:20:05 PM 35.3658 -114.3744 253° West 471 542 43,000  Level Los Angeles Center
Fri 01:21:07 PM 35.3256 -114.5278 252° West 471 542 43,000  Level Los Angeles Center
Fri 01:22:10 PM 35.2836 -114.6808 251° West 473 544 43,000  Level Los Angeles Center
Fri 01:23:12 PM 35.2439 -114.8322 252° West 469 540 43,000  Level Los Angeles Center
Fri 01:24:14 PM 35.2036 -114.9819 252° West 466 536 43,000  Level Los Angeles Center
Fri 01:25:16 PM 35.1647 -115.1322 252° West 463 533 43,000  Level Los Angeles Center
Fri 01:26:18 PM 35.1242 -115.2819 252° West 465 535 43,000  Level Los Angeles Center
Fri 01:27:20 PM 35.0742 -115.4597 251° West 464 534 43,000  Level Los Angeles Center
Fri 01:28:22 PM 35.0328 -115.6083 251° West 463 533 43,000  Level Los Angeles Center
Fri 01:29:24 PM 34.9917 -115.7575 251° West 463 533 43,000  Level Los Angeles Center
Fri 01:30:26 PM 34.9514 -115.9053 252° West 463 533 43,000  Level Los Angeles Center
Fri 01:31:28 PM 34.9106 -116.0517 251° West 460 529 43,000  Level Los Angeles Center
Fri 01:32:31 PM 34.8683 -116.2014 251° West 462 532 43,000  Level Los Angeles Center
Fri 01:33:33 PM 34.8206 -116.3778 252° West 461 531 43,000  Level Los Angeles Center
Fri 01:34:35 PM 34.7894 -116.5297 256° West 464 534 43,000  Level Los Angeles Center
Fri 01:35:37 PM 34.7756 -116.6886 264° West 471 542 43,000  Level Los Angeles Center
Fri 01:36:39 PM 34.7583 -116.8456 262° West 469 540 43,000  Level Los Angeles Center
Fri 01:37:41 PM 34.7286 -116.9992 257° West 466 536 43,000  Level Los Angeles Center
Fri 01:38:43 PM 34.6986 -117.1531 257° West 466 536 43,000  Level Los Angeles Center
Fri 01:39:45 PM 34.6700 -117.3083 257° West 468 539 43,000  Level Los Angeles Center
Fri 01:40:47 PM 34.6339 -117.4931 257° West 466 536 43,000  Level Los Angeles Center
Fri 01:41:49 PM 34.6031 -117.6464 256° West 465 535 43,000  Level Los Angeles Center
Fri 01:42:52 PM 34.5736 -117.7997 257° West 465 535 43,000 -288 Level Los Angeles Center
Fri 01:43:54 PM 34.5442 -117.9533 257° West 470 541 42,400 -919 Descending Los Angeles Center
Fri 01:44:56 PM 34.5133 -118.1033 256° West 462 532 41,100 -1,548 Descending Los Angeles Center
Fri 01:45:58 PM 34.4819 -118.2639 257° West 451 519 39,200 -1,645 Descending Los Angeles Center
Fri 01:47:00 PM 34.4522 -118.4117 256° West 454 522 37,700 -1,452 Descending Los Angeles Center
Fri 01:48:02 PM 34.4211 -118.5653 256° West 468 539 36,200 -1,306 Descending Los Angeles Center
Fri 01:49:04 PM 34.3961 -118.6861 256° West 467 537 35,000 -1,597 Descending Los Angeles Center
Fri 01:50:06 PM 34.3619 -118.8961 259° West 462 532 32,900 -1,742 Descending Los Angeles Center
Fri 01:51:08 PM 34.3975 -119.0461 286° West 469 540 31,400 -1,440 Descending Los Angeles Center
Fri 01:52:11 PM 34.4700 -119.1856 302° West 485 558 29,900 -1,440 Descending Los Angeles Center
Fri 01:53:13 PM 34.5397 -119.3258 301° West 486 559 28,400 -1,548 Descending Los Angeles Center
Fri 01:54:15 PM 34.6200 -119.4808 302° West 482 555 26,700 -1,548 Descending Los Angeles Center
Fri 01:55:17 PM 34.6892 -119.6181 302° West 477 549 25,200 -1,500 Descending Los Angeles Center
Fri 01:56:19 PM 34.7556 -119.7519 301° West 467 537 23,600 -1,984 Descending Los Angeles Center
Fri 01:57:21 PM 34.8197 -119.8806 301° West 448 516 21,100 -2,338 Descending Los Angeles Center
Fri 01:58:35 PM 34.8822 -120.0047 302° West 432 497 18,300 -2,261 Descending Los Angeles Center
Fri 01:59:39 PM 34.9522 -120.1461 301° West 368 423 15,900 -2,667 Descending Los Angeles Center
Fri 02:00:41 PM 34.9964 -120.2339 302° West 310 357 12,700 -3,660 Descending Los Angeles Center
Fri 02:01:19 PM 35.0283 -120.3033 299° West 296 341 9,800 -3,490 Descending Los Angeles Center
Fri 02:02:19 PM 35.0806 -120.3758 311° West 272 313 7,000 -2,380 Descending Los Angeles Center
Fri 02:03:20 PM 35.1186 -120.4425 305° West 248 285 5,000 -1,820 Descending Los Angeles Center
Fri 02:04:21 PM 35.1581 -120.5061 307° West 227 261 3,300 -1,461 Descending Los Angeles Center
Fri 02:05:15 PM 35.1853 -120.5525 306° West 197 227 2,200 -989 Descending Los Angeles Center
Fri 02:05:52 PM 35.1992 -120.5772 305° West 199 229 1,800 -649 Descending Los Angeles Center
Fri 02:08:00 PM 35.2373 -120.6426 90° East  Level Estimated
Fri 02:15:00 PM 35.2373 -120.6426 90° East  Level Estimated

Login

Don't have an account? Register now (free) for customized features, flight alerts, and more!